Time;durP1;ratioP1;P1;durP2;ratioP2;P2;SDS_P1;SDS_P2;PMS_P1;PMS_P2;Temp;Humidity;BMP_temperature;BMP_pressure;BME280_temperature;BME280_humidity;BME280_pressure;Samples;Min_cycle;Max_cycle;Signal;HPM_P1;HPM_P2
2023/05/18 00:00:20;;;;;;;;;;;;;;;7.53;58.02;102758.09;5052284;28;20002;-73
2023/05/18 00:02:47;;;;;;;;;;;;;;;7.50;58.29;102757.16;5050839;28;20009;-73
2023/05/18 00:05:12;;;;;;;;;;;;;;;7.47;57.15;102757.09;5052446;28;19913;-74
2023/05/18 00:07:38;;;;;;;;;;;;;;;7.42;58.01;102751.72;5052024;28;19943;-73
2023/05/18 00:10:03;;;;;;;;;;;;;;;7.37;58.23;102756.00;5052049;28;20284;-73
2023/05/18 00:12:29;;;;;;;;;;;;;;;7.32;58.26;102753.25;5052054;28;19921;-73
2023/05/18 00:14:54;;;;;;;;;;;;;;;7.30;58.50;102759.34;5048893;28;20283;-73
2023/05/18 00:17:20;;;;;;;;;;;;;;;7.26;58.94;102761.00;5052267;28;19935;-73
2023/05/18 00:19:46;;;;;;;;;;;;;;;7.24;58.61;102761.84;5043951;28;19918;-73
2023/05/18 00:22:16;;;;;;;;;;;;;;;7.22;59.72;102755.63;5049219;28;19924;-73
2023/05/18 00:24:42;;;;;;;;;;;;;;;7.20;59.31;102758.25;5051765;28;19917;-73
2023/05/18 00:27:07;;;;;;;;;;;;;;;7.17;59.36;102763.47;5050205;28;19936;-73
2023/05/18 00:29:33;;;;;;;;;;;;;;;7.14;59.11;102755.47;5045095;28;20007;-74
2023/05/18 00:31:58;;;;;;;;;;;;;;;7.09;58.61;102755.34;5042840;28;19921;-74
2023/05/18 00:34:23;;;;;;;;;;;;;;;7.09;58.80;102759.75;5050651;28;19990;-74
2023/05/18 00:36:49;;;;;;;;;;;;;;;7.09;59.19;102758.00;5053219;28;20095;-74
2023/05/18 00:39:14;;;;;;;;;;;;;;;7.07;59.02;102761.44;5050593;28;19921;-74
2023/05/18 00:41:39;;;;;;;;;;;;;;;7.05;59.62;102764.06;5050372;28;19928;-74
2023/05/18 00:44:05;;;;;;;;;;;;;;;7.03;58.83;102756.97;5050554;28;19959;-74
2023/05/18 00:46:31;;;;;;;;;;;;;;;7.00;58.48;102763.06;5033652;28;20368;-74
2023/05/18 00:48:57;;;;;;;;;;;;;;;6.97;58.86;102762.09;5036586;28;19921;-73
2023/05/18 00:51:23;;;;;;;;;;;;;;;6.91;58.95;102770.75;5051977;28;19920;-73
2023/05/18 00:53:51;;;;;;;;;;;;;;;6.87;59.02;102761.88;5053501;28;19921;-74
2023/05/18 00:56:17;;;;;;;;;;;;;;;6.85;59.84;102765.34;5054139;28;20367;-74
2023/05/18 00:58:43;;;;;;;;;;;;;;;6.82;59.55;102758.22;5054079;28;20015;-74
2023/05/18 01:01:08;;;;;;;;;;;;;;;6.78;59.40;102761.66;5055387;28;19917;-74
2023/05/18 01:03:36;;;;;;;;;;;;;;;6.73;60.26;102765.91;5070730;28;19924;-74
2023/05/18 01:06:04;;;;;;;;;;;;;;;6.69;60.31;102761.41;5053855;28;20427;-74
2023/05/18 01:08:30;;;;;;;;;;;;;;;6.65;59.66;102762.19;5053651;28;19916;-74
2023/05/18 01:11:06;;;;;;;;;;;;;;;6.62;60.22;102767.38;5053823;28;19927;-74
2023/05/18 01:13:39;;;;;;;;;;;;;;;6.59;60.22;102765.56;5053674;28;20004;-74
2023/05/18 01:16:08;;;;;;;;;;;;;;;6.55;60.21;102763.72;5048961;28;19921;-74
2023/05/18 01:18:37;;;;;;;;;;;;;;;6.52;60.15;102768.88;5028468;28;20355;-74
2023/05/18 01:21:12;;;;;;;;;;;;;;;6.50;60.77;102772.34;5054764;28;19917;-74
2023/05/18 01:23:40;;;;;;;;;;;;;;;6.49;60.46;102770.56;5055349;28;19921;-74
2023/05/18 01:26:30;;;;;;;;;;;;;;;6.47;61.52;102766.13;5054137;28;19913;-74
2023/05/18 01:28:57;;;;;;;;;;;;;;;6.46;61.37;102779.28;5051868;28;19921;-74
2023/05/18 01:31:23;;;;;;;;;;;;;;;6.43;61.61;102779.19;5054809;28;20327;-73
2023/05/18 01:33:48;;;;;;;;;;;;;;;6.40;62.40;102769.44;5054853;28;19977;-73
2023/05/18 01:36:14;;;;;;;;;;;;;;;6.36;62.49;102777.25;5053571;28;19942;-73
2023/05/18 01:38:39;;;;;;;;;;;;;;;6.33;62.33;102778.06;5055011;28;19921;-73
2023/05/18 01:41:21;;;;;;;;;;;;;;;6.32;63.01;102773.63;5053592;28;19913;-73
2023/05/18 01:43:59;;;;;;;;;;;;;;;6.29;62.46;102773.56;5041570;28;19999;-74
2023/05/18 01:46:43;;;;;;;;;;;;;;;6.28;62.65;102773.50;5053486;28;20039;-74
2023/05/18 01:49:15;;;;;;;;;;;;;;;6.25;61.67;102775.19;5055025;28;19925;-74
2023/05/18 01:51:43;;;;;;;;;;;;;;;6.23;62.00;102776.91;5053199;28;19916;-73
2023/05/18 01:54:09;;;;;;;;;;;;;;;6.22;61.97;102772.50;5047436;28;20438;-73
2023/05/18 01:56:37;;;;;;;;;;;;;;;6.22;62.28;102774.25;5052868;28;19927;-73
2023/05/18 01:59:03;;;;;;;;;;;;;;;6.19;62.11;102775.03;5053103;28;19913;-73
2023/05/18 02:01:29;;;;;;;;;;;;;;;6.17;62.20;102775.84;5059711;28;19928;-73
2023/05/18 02:03:54;;;;;;;;;;;;;;;6.17;62.25;102781.13;5053900;28;19917;-74
2023/05/18 02:06:20;;;;;;;;;;;;;;;6.16;62.30;102766.19;5069885;28;19921;-74
2023/05/18 02:08:45;;;;;;;;;;;;;;;6.14;62.14;102767.88;5053130;28;19928;-74
2023/05/18 02:11:11;;;;;;;;;;;;;;;6.12;62.21;102766.94;5054338;28;20346;-74
2023/05/18 02:13:37;;;;;;;;;;;;;;;6.12;62.05;102769.56;5052696;28;20019;-73
2023/05/18 02:16:03;;;;;;;;;;;;;;;6.10;61.97;102760.75;5054273;28;19964;-73
2023/05/18 02:18:28;;;;;;;;;;;;;;;6.08;61.83;102765.06;5069452;28;19917;-73
2023/05/18 02:21:00;;;;;;;;;;;;;;;6.06;61.54;102758.88;5042507;28;19923;-73
2023/05/18 02:23:26;;;;;;;;;;;;;;;6.06;63.46;102762.41;5052616;28;19917;-74
2023/05/18 02:25:54;;;;;;;;;;;;;;;6.03;63.65;102757.97;5035773;28;20004;-74
2023/05/18 02:28:20;;;;;;;;;;;;;;;6.02;64.06;102756.16;5041836;28;19940;-73
2023/05/18 02:30:46;;;;;;;;;;;;;;;6.01;63.66;102753.50;5053721;28;19916;-74
2023/05/18 02:33:11;;;;;;;;;;;;;;;5.99;64.63;102756.09;5027579;28;19928;-73
2023/05/18 02:35:36;;;;;;;;;;;;;;;5.98;64.47;102748.16;5053269;28;20024;-74
2023/05/18 02:38:03;;;;;;;;;;;;;;;5.96;64.13;102752.47;5052463;28;19921;-74
2023/05/18 02:40:28;;;;;;;;;;;;;;;5.94;65.30;102756.81;5052212;28;19916;-74
2023/05/18 02:42:54;;;;;;;;;;;;;;;5.91;64.43;102748.78;5052431;28;19970;-74
2023/05/18 02:45:20;;;;;;;;;;;;;;;5.89;63.88;102742.63;5052076;28;20015;-74
2023/05/18 02:47:45;;;;;;;;;;;;;;;5.89;65.58;102742.63;5052168;28;20375;-74
2023/05/18 02:50:12;;;;;;;;;;;;;;;5.91;65.29;102747.06;5052033;28;20486;-74
2023/05/18 02:52:38;;;;;;;;;;;;;;;5.90;65.01;102749.66;5035708;28;20008;-74
2023/05/18 02:55:04;;;;;;;;;;;;;;;5.87;64.83;102745.19;5045121;28;19921;-74
2023/05/18 02:58:08;;;;;;;;;;;;;;;5.87;66.51;102741.69;5052387;28;19921;-74
2023/05/18 03:00:54;;;;;;;;;;;;;;;5.85;65.50;102749.50;5052196;28;19971;-74
2023/05/18 03:03:20;;;;;;;;;;;;;;;5.82;64.71;102752.06;5052323;28;19924;-74
2023/05/18 03:05:46;;;;;;;;;;;;;;;5.81;64.64;102750.25;5051995;28;20447;-74
2023/05/18 03:08:13;;;;;;;;;;;;;;;5.78;65.20;102752.81;5052199;28;19979;-74
2023/05/18 03:10:38;;;;;;;;;;;;;;;5.75;65.41;102756.25;5032469;28;19924;-74
2023/05/18 03:13:04;;;;;;;;;;;;;;;5.74;64.95;102750.97;5046186;28;19920;-74
2023/05/18 03:15:32;;;;;;;;;;;;;;;5.72;64.43;102748.28;5051211;28;19921;-74
2023/05/18 03:18:01;;;;;;;;;;;;;;;5.69;64.99;102755.19;5052053;28;20486;-74
2023/05/18 03:20:30;;;;;;;;;;;;;;;5.67;64.94;102754.25;5051448;28;19924;-74
2023/05/18 03:22:55;;;;;;;;;;;;;;;5.66;66.12;102752.47;5051473;28;19921;-74
2023/05/18 03:25:21;;;;;;;;;;;;;;;5.64;65.76;102757.69;5051717;28;20088;-74
2023/05/18 03:27:47;;;;;;;;;;;;;;;5.59;65.69;102747.03;5050922;28;19921;-74
2023/05/18 03:30:13;;;;;;;;;;;;;;;5.57;66.33;102751.34;5031588;28;19921;-74
2023/05/18 03:32:40;;;;;;;;;;;;;;;5.54;66.89;102753.00;5045306;28;20353;-74
2023/05/18 03:35:05;;;;;;;;;;;;;;;5.52;66.09;102749.44;5068053;28;20067;-74
2023/05/18 03:37:31;;;;;;;;;;;;;;;5.49;66.79;102754.59;5052789;28;19983;-74
2023/05/18 03:40:09;;;;;;;;;;;;;;;5.50;66.35;102751.13;5031286;28;19928;-75
2023/05/18 03:42:34;;;;;;;;;;;;;;;5.48;67.11;102753.69;5051316;28;20291;-75
2023/05/18 03:45:00;;;;;;;;;;;;;;;5.47;66.26;102746.69;5064058;28;19919;-75
2023/05/18 03:47:26;;;;;;;;;;;;;;;5.46;66.26;102754.50;5051082;28;20320;-75
2023/05/18 03:49:51;;;;;;;;;;;;;;;5.44;66.77;102750.94;5051048;28;19923;-76
2023/05/18 03:52:20;;;;;;;;;;;;;;;5.42;66.64;102753.53;5034628;28;19959;-75
2023/05/18 03:54:47;;;;;;;;;;;;;;;5.41;66.53;102754.34;5052369;28;20368;-75
2023/05/18 03:57:13;;;;;;;;;;;;;;;5.41;67.05;102756.09;5068226;28;19928;-75
2023/05/18 03:59:38;;;;;;;;;;;;;;;5.41;67.67;102751.72;5052151;28;20441;-75
2023/05/18 04:02:04;;;;;;;;;;;;;;;5.41;66.36;102762.25;5050828;28;19921;-75
2023/05/18 04:04:29;;;;;;;;;;;;;;;5.41;67.14;102762.25;5061011;28;19917;-75
2023/05/18 04:06:55;;;;;;;;;;;;;;;5.42;67.50;102763.16;5050680;28;19985;-75
2023/05/18 04:09:22;;;;;;;;;;;;;;;5.42;66.64;102774.56;5052325;28;20004;-75
2023/05/18 04:11:48;;;;;;;;;;;;;;;5.41;67.09;102767.50;5037142;28;19964;-74
2023/05/18 04:14:13;;;;;;;;;;;;;;;5.43;65.87;102764.94;5047437;28;20022;-75
2023/05/18 04:16:40;;;;;;;;;;;;;;;5.42;66.38;102769.31;5044124;28;19925;-75
2023/05/18 04:19:07;;;;;;;;;;;;;;;5.43;66.79;102772.81;5051820;28;20022;-75
2023/05/18 04:21:34;;;;;;;;;;;;;;;5.42;66.60;102768.41;5050992;28;20337;-75
2023/05/18 04:24:04;;;;;;;;;;;;;;;5.43;66.54;102772.81;5052136;28;19920;-75
2023/05/18 04:26:30;;;;;;;;;;;;;;;5.45;67.24;102774.63;5049852;28;20286;-75
2023/05/18 04:28:58;;;;;;;;;;;;;;;5.43;68.03;102773.69;5046352;28;19991;-75
2023/05/18 04:31:26;;;;;;;;;;;;;;;5.43;67.89;102771.06;5038535;28;19921;-75
2023/05/18 04:33:52;;;;;;;;;;;;;;;5.46;67.72;102779.03;5049725;28;19953;-74
2023/05/18 04:36:18;;;;;;;;;;;;;;;5.48;68.86;102785.22;5056358;28;19956;-75
2023/05/18 04:38:44;;;;;;;;;;;;;;;5.49;68.27;102781.78;5054347;28;19917;-74
2023/05/18 04:41:09;;;;;;;;;;;;;;;5.49;68.32;102787.03;5037629;28;19931;-75
2023/05/18 04:43:35;;;;;;;;;;;;;;;5.53;68.40;102782.75;5054498;28;20312;-75
2023/05/18 04:46:01;;;;;;;;;;;;;;;5.58;69.25;102775.91;5051569;28;19921;-75
2023/05/18 04:48:28;;;;;;;;;;;;;;;5.62;67.80;102782.16;5054651;28;19927;-75
2023/05/18 04:50:54;;;;;;;;;;;;;;;5.64;68.07;102788.31;5054444;28;19921;-75
2023/05/18 04:53:21;;;;;;;;;;;;;;;5.67;68.58;102793.69;5037790;28;19916;-75
2023/05/18 04:55:48;;;;;;;;;;;;;;;5.70;68.84;102797.28;5054243;28;19929;-75
2023/05/18 04:58:15;;;;;;;;;;;;;;;5.72;67.91;102789.47;5054062;28;20240;-75
2023/05/18 05:00:41;;;;;;;;;;;;;;;5.76;67.70;102796.56;5054125;28;20342;-75
2023/05/18 05:03:07;;;;;;;;;;;;;;;5.79;68.21;102794.94;5048387;28;19921;-75
2023/05/18 05:05:33;;;;;;;;;;;;;;;5.84;68.20;102791.56;5037020;28;19921;-75
2023/05/18 05:07:58;;;;;;;;;;;;;;;5.89;68.01;102795.22;5055346;28;20398;-75
2023/05/18 05:10:24;;;;;;;;;;;;;;;5.91;67.95;102798.75;5055420;28;19928;-75
2023/05/18 05:12:49;;;;;;;;;;;;;;;5.96;67.51;102794.53;5053802;28;20399;-75
2023/05/18 05:15:15;;;;;;;;;;;;;;;6.00;67.99;102802.56;5025865;28;19935;-76
2023/05/18 05:17:40;;;;;;;;;;;;;;;6.08;68.48;102801.91;5067124;28;20368;-76
2023/05/18 05:20:07;;;;;;;;;;;;;;;6.13;66.25;102795.94;5053675;28;19933;-76
2023/05/18 05:22:33;;;;;;;;;;;;;;;6.17;68.54;102796.91;5053741;28;20272;-75
2023/05/18 05:24:59;;;;;;;;;;;;;;;6.21;68.33;102799.66;5053666;28;19920;-76
2023/05/18 05:27:25;;;;;;;;;;;;;;;6.24;66.97;102797.09;5045736;28;20405;-76
2023/05/18 05:29:51;;;;;;;;;;;;;;;6.28;68.28;102805.06;5052212;28;20359;-76
2023/05/18 05:32:16;;;;;;;;;;;;;;;6.31;67.73;102802.56;5053583;28;20295;-75
2023/05/18 05:34:45;;;;;;;;;;;;;;;6.35;68.02;102800.00;5052893;28;20376;-76
2023/05/18 05:37:11;;;;;;;;;;;;;;;6.38;67.74;102810.66;5041572;28;19968;-75
2023/05/18 05:39:37;;;;;;;;;;;;;;;6.41;67.69;102805.47;5051064;28;19916;-75
2023/05/18 05:42:05;;;;;;;;;;;;;;;6.49;67.67;102796.88;5043369;28;19909;-76
2023/05/18 05:44:30;;;;;;;;;;;;;;;6.53;68.11;102789.09;5048826;28;19921;-76
2023/05/18 05:46:56;;;;;;;;;;;;;;;6.57;68.44;102798.84;5045021;28;19917;-76
2023/05/18 05:49:21;;;;;;;;;;;;;;;6.65;68.32;102797.31;5048038;28;19921;-76
2023/05/18 05:51:47;;;;;;;;;;;;;;;6.77;68.54;102795.84;5053182;28;19924;-76
2023/05/18 05:54:13;;;;;;;;;;;;;;;6.88;68.36;102797.91;5054588;28;19928;-76
2023/05/18 05:56:39;;;;;;;;;;;;;;;6.99;66.04;102797.25;5053165;28;19913;-76
2023/05/18 05:59:07;;;;;;;;;;;;;;;7.09;67.36;102801.91;5036545;28;19921;-76
2023/05/18 06:01:33;;;;;;;;;;;;;;;7.19;67.02;102788.06;5053013;28;20004;-76
2023/05/18 06:03:59;;;;;;;;;;;;;;;7.32;66.71;102794.53;5053177;28;20363;-76
2023/05/18 06:06:24;;;;;;;;;;;;;;;7.44;66.53;102794.81;5054426;28;20194;-76
2023/05/18 06:08:50;;;;;;;;;;;;;;;7.61;64.16;102796.91;5053239;28;20391;-76
2023/05/18 06:11:17;;;;;;;;;;;;;;;7.77;67.38;102796.41;5020441;28;19920;-76
2023/05/18 06:13:43;;;;;;;;;;;;;;;7.84;65.70;102794.75;5034206;28;19920;-76
2023/05/18 06:16:08;;;;;;;;;;;;;;;7.89;64.19;102793.13;5023834;28;19939;-76
2023/05/18 06:18:33;;;;;;;;;;;;;;;7.94;65.42;102795.00;5035754;28;20437;-75
2023/05/18 06:21:02;;;;;;;;;;;;;;;8.00;65.05;102796.88;5052453;28;19920;-76
2023/05/18 06:23:28;;;;;;;;;;;;;;;8.04;65.65;102804.00;5052682;28;20329;-76
2023/05/18 06:26:13;;;;;;;;;;;;;;;8.10;64.45;102797.94;5050430;28;19925;-75
2023/05/18 06:28:50;;;;;;;;;;;;;;;8.12;65.36;102801.50;5043658;28;20249;-76
2023/05/18 06:31:34;;;;;;;;;;;;;;;8.14;64.92;102803.31;5053570;28;19927;-75
2023/05/18 06:34:18;;;;;;;;;;;;;;;8.21;64.58;102806.06;5043605;28;19932;-76
2023/05/18 06:36:43;;;;;;;;;;;;;;;8.27;65.13;102809.72;5035689;28;20280;-76
2023/05/18 06:39:09;;;;;;;;;;;;;;;8.32;65.93;102808.06;5052327;28;19921;-76
2023/05/18 06:41:34;;;;;;;;;;;;;;;8.44;65.17;102810.06;5052198;28;19924;-75
2023/05/18 06:44:01;;;;;;;;;;;;;;;8.58;65.03;102810.31;5052577;28;19974;-76
2023/05/18 06:46:34;;;;;;;;;;;;;;;8.73;64.68;102804.41;5037030;28;19928;-76
2023/05/18 06:49:01;;;;;;;;;;;;;;;8.87;63.98;102802.00;5032279;28;19936;-76
2023/05/18 06:51:27;;;;;;;;;;;;;;;8.98;64.52;102797.81;5026502;28;19916;-76
2023/05/18 06:53:54;;;;;;;;;;;;;;;9.12;63.71;102805.94;5031879;28;19925;-76
2023/05/18 06:56:21;;;;;;;;;;;;;;;9.21;61.93;102806.97;5025345;28;19999;-76
2023/05/18 06:58:46;;;;;;;;;;;;;;;9.30;63.30;102797.38;5051933;28;19929;-76
2023/05/18 07:01:12;;;;;;;;;;;;;;;9.40;63.15;102809.91;5051934;28;19965;-76
2023/05/18 07:03:38;;;;;;;;;;;;;;;9.50;60.85;102814.44;5053230;28;20011;-76
2023/05/18 07:06:04;;;;;;;;;;;;;;;9.56;60.49;102808.34;5052920;28;20382;-76
2023/05/18 07:08:30;;;;;;;;;;;;;;;9.65;61.75;102813.78;5053536;28;19921;-76
2023/05/18 07:10:56;;;;;;;;;;;;;;;9.79;62.03;102809.56;5053057;28;19917;-76
2023/05/18 07:13:22;;;;;;;;;;;;;;;9.98;61.75;102815.06;5051935;28;20391;-76
2023/05/18 07:15:48;;;;;;;;;;;;;;;10.15;60.25;102812.63;5051404;28;19952;-77
2023/05/18 07:18:13;;;;;;;;;;;;;;;10.28;59.33;102820.72;5053407;28;20411;-77
2023/05/18 07:20:38;;;;;;;;;;;;;;;10.40;58.98;102816.47;5051337;28;19927;-78
2023/05/18 07:23:04;;;;;;;;;;;;;;;10.44;58.80;102821.81;5052936;28;19921;-76
2023/05/18 07:25:29;;;;;;;;;;;;;;;10.48;59.20;102818.31;5052896;28;20318;-77
2023/05/18 07:27:55;;;;;;;;;;;;;;;10.62;59.10;102821.09;5033352;28;19928;-76
2023/05/18 07:30:21;;;;;;;;;;;;;;;10.79;59.09;102820.38;5052473;28;19928;-76
2023/05/18 07:32:46;;;;;;;;;;;;;;;10.92;58.49;102817.81;5045435;28;19917;-76
2023/05/18 07:35:12;;;;;;;;;;;;;;;10.97;57.61;102825.81;5046976;28;19983;-76
2023/05/18 07:37:37;;;;;;;;;;;;;;;10.98;57.44;102819.66;5051427;28;20257;-76
2023/05/18 07:40:03;;;;;;;;;;;;;;;11.05;57.54;102823.22;5052625;28;19920;-75
2023/05/18 07:42:29;;;;;;;;;;;;;;;11.22;57.77;102821.59;5052355;28;19913;-75
2023/05/18 07:44:55;;;;;;;;;;;;;;;11.36;57.49;102829.66;5045458;28;20399;-75
2023/05/18 07:47:20;;;;;;;;;;;;;;;11.51;57.49;102837.69;5048620;28;19920;-75
2023/05/18 07:49:46;;;;;;;;;;;;;;;11.65;57.40;102839.53;5052854;28;19924;-75
2023/05/18 07:52:11;;;;;;;;;;;;;;;11.70;56.11;102836.06;5052678;28;20431;-75
2023/05/18 07:54:37;;;;;;;;;;;;;;;11.74;56.61;102843.13;5050852;28;20023;-75
2023/05/18 07:57:03;;;;;;;;;;;;;;;11.84;56.22;102836.09;5052722;28;19920;-75
2023/05/18 07:59:28;;;;;;;;;;;;;;;11.87;55.44;102840.56;5046726;28;19972;-75
2023/05/18 08:01:54;;;;;;;;;;;;;;;11.88;56.05;102840.59;5042329;28;19932;-75
2023/05/18 08:04:19;;;;;;;;;;;;;;;11.95;55.74;102838.88;5052216;28;20352;-75
2023/05/18 08:06:44;;;;;;;;;;;;;;;12.00;55.17;102851.25;5050839;28;20390;-75
2023/05/18 08:09:10;;;;;;;;;;;;;;;12.03;54.85;102843.31;5051980;28;19921;-75
2023/05/18 08:11:35;;;;;;;;;;;;;;;12.15;55.49;102836.28;5052177;28;19960;-75
2023/05/18 08:14:01;;;;;;;;;;;;;;;12.29;55.36;102845.19;5052160;28;19929;-74
2023/05/18 08:16:26;;;;;;;;;;;;;;;12.41;55.00;102842.56;5051724;28;20018;-75
2023/05/18 08:18:51;;;;;;;;;;;;;;;12.47;54.58;102845.22;5052001;28;19924;-74
2023/05/18 08:21:17;;;;;;;;;;;;;;;12.62;54.15;102844.38;5051873;28;20256;-76
2023/05/18 08:23:42;;;;;;;;;;;;;;;12.72;54.95;102844.38;5052194;28;19927;-76
2023/05/18 08:26:08;;;;;;;;;;;;;;;12.88;53.90;102833.78;5050589;28;21362;-76
2023/05/18 08:28:33;;;;;;;;;;;;;;;13.01;54.04;102836.44;5048968;28;19990;-77
2023/05/18 08:30:59;;;;;;;;;;;;;;;13.08;53.36;102825.78;5050622;28;19917;-77
2023/05/18 08:33:25;;;;;;;;;;;;;;;13.20;52.55;102832.84;5052069;28;19955;-76
2023/05/18 08:35:50;;;;;;;;;;;;;;;13.26;51.64;102824.88;5051771;28;20016;-76
2023/05/18 08:38:16;;;;;;;;;;;;;;;13.26;51.42;102819.56;5052074;28;19921;-77
2023/05/18 08:40:42;;;;;;;;;;;;;;;13.32;52.46;102826.66;5051708;28;19952;-77
2023/05/18 08:43:17;;;;;;;;;;;;;;;13.54;52.10;102823.06;5052200;28;19920;-78
2023/05/18 08:45:43;;;;;;;;;;;;;;;13.76;51.75;102821.22;5050518;28;19916;-77
2023/05/18 08:48:10;;;;;;;;;;;;;;;13.94;51.91;102820.25;5051732;28;20363;-77
2023/05/18 08:50:36;;;;;;;;;;;;;;;14.10;50.38;102820.22;5052034;28;19924;-76
2023/05/18 08:53:04;;;;;;;;;;;;;;;14.20;50.31;102817.47;5051908;28;19913;-76
2023/05/18 08:55:35;;;;;;;;;;;;;;;14.35;50.95;102811.19;5038043;28;19983;-77
2023/05/18 08:58:01;;;;;;;;;;;;;;;14.52;49.03;102808.41;5051972;28;19917;-77
2023/05/18 09:00:28;;;;;;;;;;;;;;;14.65;49.10;102801.22;5050201;28;19924;-77
2023/05/18 09:02:54;;;;;;;;;;;;;;;14.83;49.43;102798.41;5051961;28;19963;-77
2023/05/18 09:05:20;;;;;;;;;;;;;;;14.95;49.05;102799.22;5050299;28;20306;-77
2023/05/18 09:07:46;;;;;;;;;;;;;;;15.03;48.25;102800.03;5051773;28;19917;-76
2023/05/18 09:10:12;;;;;;;;;;;;;;;14.97;47.95;102808.09;5051298;28;19917;-77
2023/05/18 09:12:40;;;;;;;;;;;;;;;14.87;48.82;102799.28;5050764;28;19925;-78
2023/05/18 09:15:07;;;;;;;;;;;;;;;14.81;47.41;102802.91;5053836;28;19956;-77
2023/05/18 09:17:32;;;;;;;;;;;;;;;14.63;48.10;102801.22;5053991;28;19925;-77
2023/05/18 09:19:57;;;;;;;;;;;;;;;14.51;48.07;102803.06;5044970;28;19917;-77
2023/05/18 09:22:23;;;;;;;;;;;;;;;14.55;47.87;102795.09;5051473;28;20011;-77
2023/05/18 09:24:49;;;;;;;;;;;;;;;14.47;47.91;102788.91;5055102;28;19932;-77
2023/05/18 09:27:14;;;;;;;;;;;;;;;14.42;47.52;102785.38;5054821;28;19971;-77
2023/05/18 09:29:53;;;;;;;;;;;;;;;14.51;47.85;102793.28;5024752;28;19975;-76
2023/05/18 09:32:19;;;;;;;;;;;;;;;14.78;48.16;102792.22;5053678;28;19917;-76
2023/05/18 09:34:44;;;;;;;;;;;;;;;15.07;47.28;102793.75;5048097;28;19921;-76
2023/05/18 09:37:10;;;;;;;;;;;;;;;15.26;47.56;102792.69;5070168;28;19921;-77
2023/05/18 09:39:35;;;;;;;;;;;;;;;15.36;47.22;102792.59;5054695;28;19915;-77
2023/05/18 09:42:04;;;;;;;;;;;;;;;15.34;46.47;102787.25;5054922;28;19927;-78
2023/05/18 09:44:30;;;;;;;;;;;;;;;15.27;46.38;102785.56;5054340;28;19920;-78
2023/05/18 09:46:55;;;;;;;;;;;;;;;15.13;45.38;102783.00;5054520;28;19974;-77
2023/05/18 09:49:21;;;;;;;;;;;;;;;15.01;46.91;102785.84;5054792;28;19917;-77
2023/05/18 09:51:47;;;;;;;;;;;;;;;14.95;46.45;102785.88;5053117;28;20296;-75
2023/05/18 09:54:13;;;;;;;;;;;;;;;14.97;45.73;102776.06;5053083;28;19931;-75
2023/05/18 09:56:38;;;;;;;;;;;;;;;15.01;47.57;102778.72;5054520;28;19959;-74
2023/05/18 09:59:10;;;;;;;;;;;;;;;15.05;47.33;102782.22;5054322;28;19928;-75
2023/05/18 10:01:35;;;;;;;;;;;;;;;15.10;47.47;102776.84;5054307;28;19924;-74
2023/05/18 10:04:02;;;;;;;;;;;;;;;15.22;45.51;102774.03;5054076;28;20410;-75
2023/05/18 10:06:28;;;;;;;;;;;;;;;15.38;44.69;102777.41;5054226;28;19917;-75
2023/05/18 10:08:55;;;;;;;;;;;;;;;15.52;45.50;102774.59;5054196;28;20457;-75
2023/05/18 10:11:22;;;;;;;;;;;;;;;15.69;45.08;102781.53;5054368;28;20734;-75
2023/05/18 10:13:52;;;;;;;;;;;;;;;15.81;44.70;102772.50;5054158;28;19916;-75
2023/05/18 10:16:17;;;;;;;;;;;;;;;15.91;44.19;102766.13;5052978;28;19920;-75
2023/05/18 10:18:44;;;;;;;;;;;;;;;15.93;44.83;102763.44;5053013;28;19917;-74
2023/05/18 10:21:11;;;;;;;;;;;;;;;15.92;45.07;102761.66;5051587;28;19995;-74
2023/05/18 10:23:39;;;;;;;;;;;;;;;16.00;43.72;102754.44;5054101;28;19913;-74
2023/05/18 10:26:08;;;;;;;;;;;;;;;16.04;44.40;102760.63;5053653;28;19966;-75
2023/05/18 10:28:37;;;;;;;;;;;;;;;16.04;45.54;102750.81;5050698;28;19927;-74
2023/05/18 10:31:05;;;;;;;;;;;;;;;16.28;44.45;102754.03;5048082;28;20443;-74
2023/05/18 10:33:30;;;;;;;;;;;;;;;16.45;44.23;102753.78;5052530;28;19917;-74
2023/05/18 10:35:57;;;;;;;;;;;;;;;16.63;43.78;102755.25;5053419;28;19925;-75
2023/05/18 10:38:23;;;;;;;;;;;;;;;16.70;43.67;102743.56;5053711;28;19913;-75
2023/05/18 10:40:50;;;;;;;;;;;;;;;16.77;44.41;102748.75;5053350;28;19917;-74
2023/05/18 10:43:18;;;;;;;;;;;;;;;16.79;43.65;102748.78;5054007;28;20003;-75
2023/05/18 10:45:45;;;;;;;;;;;;;;;16.89;44.54;102747.72;5053611;28;19962;-75
2023/05/18 10:48:11;;;;;;;;;;;;;;;17.03;42.13;102746.56;5053605;28;19913;-75
2023/05/18 10:50:38;;;;;;;;;;;;;;;17.24;42.73;102750.63;5064185;28;20268;-75
2023/05/18 10:53:05;;;;;;;;;;;;;;;17.28;43.54;102747.84;5053199;28;19913;-74
2023/05/18 10:55:30;;;;;;;;;;;;;;;17.37;42.84;102736.09;5065473;28;19925;-75
2023/05/18 10:58:01;;;;;;;;;;;;;;;17.51;42.74;102741.19;5053386;28;19924;-75
2023/05/18 11:00:27;;;;;;;;;;;;;;;17.56;41.21;102736.59;5053001;28;19916;-75
2023/05/18 11:02:52;;;;;;;;;;;;;;;17.75;42.20;102732.59;5053055;28;19928;-75
2023/05/18 11:05:25;;;;;;;;;;;;;;;17.92;42.21;102732.25;5053220;28;19925;-75
2023/05/18 11:07:58;;;;;;;;;;;;;;;18.14;42.26;102729.09;5053144;28;20410;-75
2023/05/18 11:10:31;;;;;;;;;;;;;;;18.33;41.71;102724.19;5052822;28;19917;-75
2023/05/18 11:12:59;;;;;;;;;;;;;;;18.40;42.46;102725.78;5051826;28;20500;-75
2023/05/18 11:15:44;;;;;;;;;;;;;;;18.50;42.04;102727.31;5052755;28;19917;-75
2023/05/18 11:18:13;;;;;;;;;;;;;;;18.45;41.69;102723.88;5053031;28;19921;-75
2023/05/18 11:20:39;;;;;;;;;;;;;;;18.27;41.67;102728.78;5052758;28;19917;-75
2023/05/18 11:23:05;;;;;;;;;;;;;;;18.40;40.96;102725.78;5051596;28;19928;-75
2023/05/18 11:25:33;;;;;;;;;;;;;;;18.46;40.62;102720.25;5052525;28;20310;-75
2023/05/18 11:28:06;;;;;;;;;;;;;;;18.63;41.75;102712.66;5050923;28;19928;-75
2023/05/18 11:30:31;;;;;;;;;;;;;;;18.80;40.57;102719.44;5051242;28;19927;-75
2023/05/18 11:33:18;;;;;;;;;;;;;;;18.93;41.43;102726.22;5052402;28;19913;-75
2023/05/18 11:36:02;;;;;;;;;;;;;;;19.11;41.09;102723.06;5051945;28;19974;-75
2023/05/18 11:38:46;;;;;;;;;;;;;;;19.28;41.26;102719.88;5050799;28;19970;-75
2023/05/18 11:41:30;;;;;;;;;;;;;;;19.46;39.37;102715.78;5052374;28;19928;-75
2023/05/18 11:44:13;;;;;;;;;;;;;;;19.64;40.59;102700.91;5052424;28;19924;-75
2023/05/18 11:46:39;;;;;;;;;;;;;;;19.74;39.18;102704.25;5047461;28;20378;-75
2023/05/18 11:49:08;;;;;;;;;;;;;;;19.75;39.42;102704.16;5052660;28;19964;-75
2023/05/18 11:51:54;;;;;;;;;;;;;;;19.46;36.55;102706.81;5050795;28;20323;-75
2023/05/18 11:54:22;;;;;;;;;;;;;;;19.29;39.99;102707.34;5060928;28;19920;-75
2023/05/18 11:56:49;;;;;;;;;;;;;;;19.31;38.43;102705.47;5052490;28;19921;-75
2023/05/18 11:59:14;;;;;;;;;;;;;;;19.15;40.45;102694.28;5050687;28;19956;-76
2023/05/18 12:01:40;;;;;;;;;;;;;;;18.97;40.68;102701.06;5052576;28;19990;-75
2023/05/18 12:04:06;;;;;;;;;;;;;;;18.88;40.99;102691.44;5045608;28;20322;-75
2023/05/18 12:06:31;;;;;;;;;;;;;;;18.88;41.15;102683.41;5046026;28;19971;-76
2023/05/18 12:08:57;;;;;;;;;;;;;;;18.81;39.16;102695.22;5050915;28;19921;-75
2023/05/18 12:11:23;;;;;;;;;;;;;;;18.62;39.70;102694.81;5052441;28;20011;-75
2023/05/18 12:13:51;;;;;;;;;;;;;;;18.37;39.85;102693.66;5050513;28;20011;-75
2023/05/18 12:16:17;;;;;;;;;;;;;;;18.18;40.68;102690.56;5052571;28;19917;-75
2023/05/18 12:18:49;;;;;;;;;;;;;;;18.03;40.56;102689.13;5052200;28;19994;-75
2023/05/18 12:21:19;;;;;;;;;;;;;;;17.90;40.14;102685.84;5051943;28;20261;-75
2023/05/18 12:23:45;;;;;;;;;;;;;;;17.79;40.95;102688.75;5052015;28;20295;-76
2023/05/18 12:26:10;;;;;;;;;;;;;;;17.74;41.92;102690.63;5037120;28;19921;-76
2023/05/18 12:28:35;;;;;;;;;;;;;;;17.68;41.32;102693.47;5050363;28;20371;-76
2023/05/18 12:31:06;;;;;;;;;;;;;;;17.72;41.82;102687.09;5050439;28;20016;-75
2023/05/18 12:33:34;;;;;;;;;;;;;;;17.73;40.79;102694.25;5052433;28;20020;-76
2023/05/18 12:35:59;;;;;;;;;;;;;;;17.71;40.29;102688.03;5051874;28;20271;-75
2023/05/18 12:38:26;;;;;;;;;;;;;;;17.79;41.69;102691.41;5052270;28;19925;-75
2023/05/18 12:40:53;;;;;;;;;;;;;;;17.83;41.26;102692.28;5051871;28;20271;-76
2023/05/18 12:43:23;;;;;;;;;;;;;;;17.95;40.85;102683.06;5052144;28;19924;-75